Time;durP1;ratioP1;P1;durP2;ratioP2;P2;SDS_P1;SDS_P2;PMS_P1;PMS_P2;Temp;Humidity;BMP_temperature;BMP_pressure;BME280_temperature;BME280_humidity;BME280_pressure;Samples;Min_cycle;Max_cycle;Signal;HPM_P1;HPM_P2
2021/11/25 00:00:07;;;;;;;51.17;26.00;;;;;;;6.31;97.34;101532.50;5050614;28;20028;-74
2021/11/25 00:02:33;;;;;;;53.67;26.45;;;;;;;6.30;97.10;101515.06;5047936;28;20179;-74
2021/11/25 00:04:58;;;;;;;54.67;26.00;;;;;;;6.30;97.63;101515.94;5050783;28;20127;-74
2021/11/25 00:07:24;;;;;;;48.08;26.88;;;;;;;6.31;97.60;101512.53;5043023;28;20053;-75
2021/11/25 00:09:50;;;;;;;49.90;26.30;;;;;;;6.30;97.28;101518.56;5052787;28;20072;-74
2021/11/25 00:12:16;;;;;;;51.15;26.55;;;;;;;6.27;97.68;101515.81;5048422;28;20460;-74
2021/11/25 00:14:42;;;;;;;50.72;26.17;;;;;;;6.27;97.35;101505.38;5047929;28;20169;-75
2021/11/25 00:17:07;;;;;;;51.45;25.92;;;;;;;6.30;97.28;101510.72;5054213;28;20048;-74
2021/11/25 00:19:33;;;;;;;53.88;26.75;;;;;;;6.29;96.70;101506.31;5053399;28;20039;-74
2021/11/25 00:21:59;;;;;;;51.85;24.65;;;;;;;6.30;96.25;101502.00;5049999;28;20042;-75
2021/11/25 00:24:25;;;;;;;47.47;25.30;;;;;;;6.29;96.42;101497.59;5048100;28;20033;-75
2021/11/25 00:26:53;;;;;;;47.53;26.52;;;;;;;6.27;96.28;101494.91;5049518;28;20059;-74
2021/11/25 00:29:19;;;;;;;50.15;26.08;;;;;;;6.26;95.83;101490.50;5055415;28;20029;-75
2021/11/25 00:31:44;;;;;;;50.38;26.20;;;;;;;6.28;95.84;101488.88;5049140;28;20503;-75
2021/11/25 00:34:10;;;;;;;56.05;25.85;;;;;;;6.28;95.04;101494.09;5044544;28;20040;-75
2021/11/25 00:36:35;;;;;;;54.58;26.58;;;;;;;6.26;95.84;101493.13;5033429;28;20436;-75
2021/11/25 00:39:01;;;;;;;46.67;24.48;;;;;;;6.24;95.64;101486.94;5035837;28;20044;-74
2021/11/25 00:41:27;;;;;;;45.58;24.98;;;;;;;6.24;95.04;101484.34;5034110;28;20046;-75
2021/11/25 00:43:52;;;;;;;54.58;25.80;;;;;;;6.28;94.72;101475.81;5040030;28;20040;-75
2021/11/25 00:46:18;;;;;;;47.72;25.45;;;;;;;6.27;94.21;101479.22;5041213;28;20061;-74
2021/11/25 00:48:45;;;;;;;49.08;23.65;;;;;;;6.25;93.81;101475.66;5039630;28;20056;-74
2021/11/25 00:51:10;;;;;;;46.15;23.58;;;;;;;6.28;92.65;101470.56;5035487;28;20355;-75
2021/11/25 00:53:37;;;;;;;46.42;24.05;;;;;;;6.26;92.18;101460.88;5034718;28;20211;-75
2021/11/25 00:56:02;;;;;;;46.45;24.58;;;;;;;6.28;91.95;101464.44;5034104;28;20112;-76
2021/11/25 00:58:29;;;;;;;43.70;22.35;;;;;;;6.28;91.78;101460.13;5035109;28;20208;-75
2021/11/25 01:00:55;;;;;;;45.85;23.42;;;;;;;6.25;91.82;101462.56;5034211;28;20035;-75
2021/11/25 01:03:21;;;;;;;49.00;25.27;;;;;;;6.24;91.77;101469.53;5034850;28;20033;-74
2021/11/25 01:05:47;;;;;;;46.60;23.65;;;;;;;6.27;91.49;101470.47;5034124;28;20032;-76
2021/11/25 01:08:14;;;;;;;44.35;23.77;;;;;;;6.25;90.77;101467.81;5033533;28;20044;-75
2021/11/25 01:10:39;;;;;;;44.88;23.23;;;;;;;6.25;90.91;101457.34;5034815;28;20036;-75
2021/11/25 01:13:05;;;;;;;47.33;24.13;;;;;;;6.25;90.38;101454.75;5037489;28;20465;-75
2021/11/25 01:15:33;;;;;;;44.25;22.90;;;;;;;6.24;90.55;101453.84;5047693;28;20033;-75
2021/11/25 01:18:07;;;;;;;45.67;24.00;;;;;;;6.24;90.60;101453.84;5033901;28;20465;-75
2021/11/25 01:20:34;;;;;;;44.78;22.77;;;;;;;6.23;90.19;101451.19;5033900;28;20409;-75
2021/11/25 01:23:01;;;;;;;45.70;23.83;;;;;;;6.22;90.10;101455.50;5033963;28;20095;-75
2021/11/25 01:25:27;;;;;;;46.40;23.48;;;;;;;6.22;90.29;101452.88;5046021;28;20041;-75
2021/11/25 01:27:53;;;;;;;44.20;23.17;;;;;;;6.21;90.84;101458.97;5034584;28;20037;-75
2021/11/25 01:30:18;;;;;;;44.15;23.40;;;;;;;6.20;91.35;101453.63;5033484;28;20395;-75
2021/11/25 01:32:44;;;;;;;47.10;24.48;;;;;;;6.21;90.98;101453.72;5038801;28;20025;-75
2021/11/25 01:35:10;;;;;;;49.05;24.58;;;;;;;6.23;91.45;101456.41;5041636;28;20029;-75
2021/11/25 01:37:36;;;;;;;46.97;23.67;;;;;;;6.25;91.94;101459.97;5034705;28;20025;-75
2021/11/25 01:40:11;;;;;;;49.15;24.95;;;;;;;6.22;92.01;101452.00;5045276;28;20021;-75
2021/11/25 01:42:37;;;;;;;50.70;25.15;;;;;;;6.19;92.64;101457.97;5033884;28;20034;-75
2021/11/25 01:45:05;;;;;;;53.83;26.05;;;;;;;6.20;92.80;101466.69;5033577;28;20541;-75
2021/11/25 01:47:30;;;;;;;56.95;26.42;;;;;;;6.19;93.33;101465.81;5033261;28;20100;-75
2021/11/25 01:49:56;;;;;;;53.90;27.13;;;;;;;6.20;93.50;101466.69;5041510;28;20455;-75
2021/11/25 01:52:21;;;;;;;53.30;27.10;;;;;;;6.20;93.81;101461.47;5031908;28;20084;-75
2021/11/25 01:54:47;;;;;;;56.53;26.48;;;;;;;6.21;94.34;101455.44;5034001;28;20067;-75
2021/11/25 01:57:13;;;;;;;54.42;27.75;;;;;;;6.19;94.37;101449.25;5039993;28;20061;-74
2021/11/25 01:59:41;;;;;;;59.90;27.55;;;;;;;6.18;94.57;101447.47;5033776;28;20080;-75
2021/11/25 02:02:07;;;;;;;60.55;27.98;;;;;;;6.16;95.64;101443.88;5032538;28;20099;-74
2021/11/25 02:04:33;;;;;;;60.03;27.98;;;;;;;6.15;95.91;101440.38;5033463;28;20037;-74
2021/11/25 02:06:59;;;;;;;57.17;28.08;;;;;;;6.13;96.02;101433.28;5033853;28;20079;-74
2021/11/25 02:09:25;;;;;;;57.28;27.48;;;;;;;6.13;96.94;101438.53;5043016;28;20029;-76
2021/11/25 02:11:51;;;;;;;61.10;29.45;;;;;;;6.13;97.15;101438.53;5036380;28;20051;-74
2021/11/25 02:14:18;;;;;;;68.30;30.38;;;;;;;6.12;97.35;101436.72;5039227;28;20037;-75
2021/11/25 02:16:45;;;;;;;62.55;30.38;;;;;;;6.08;97.68;101434.00;5034383;28;20044;-74
2021/11/25 02:19:12;;;;;;;67.05;30.42;;;;;;;6.10;98.13;101431.44;5018811;28;20025;-75
2021/11/25 02:21:38;;;;;;;61.35;28.63;;;;;;;6.07;98.50;101423.47;5050317;28;20060;-75
2021/11/25 02:24:03;;;;;;;69.85;30.58;;;;;;;6.11;98.73;101420.16;5035253;28;20025;-75
2021/11/25 02:26:29;;;;;;;70.57;32.03;;;;;;;6.10;99.25;101427.94;5034738;28;20132;-75
2021/11/25 02:28:54;;;;;;;72.28;30.88;;;;;;;6.05;99.87;101425.09;5041219;28;20041;-75
2021/11/25 02:31:20;;;;;;;69.93;30.13;;;;;;;6.02;100.00;101430.19;5054781;28;20016;-75
2021/11/25 02:33:45;;;;;;;72.32;31.95;;;;;;;5.91;100.00;101427.06;5034251;28;20437;-74
2021/11/25 02:36:11;;;;;;;77.28;34.05;;;;;;;5.89;100.00;101428.75;5033635;28;20057;-74
2021/11/25 02:38:37;;;;;;;70.75;32.85;;;;;;;5.84;100.00;101430.25;5033192;28;20037;-75
2021/11/25 02:41:03;;;;;;;76.22;34.28;;;;;;;5.78;100.00;101425.66;5034045;28;20083;-75
2021/11/25 02:43:31;;;;;;;76.40;33.35;;;;;;;5.77;100.00;101417.75;5043752;28;20033;-73
2021/11/25 02:46:05;;;;;;;78.82;36.08;;;;;;;5.66;100.00;101418.13;5035149;28;20108;-76
2021/11/25 02:48:48;;;;;;;78.13;34.25;;;;;;;5.66;100.00;101415.53;5038813;28;20032;-75
2021/11/25 02:51:20;;;;;;;78.90;34.38;;;;;;;5.61;100.00;101405.72;5030552;28;20370;-76
2021/11/25 02:53:47;;;;;;;85.38;35.63;;;;;;;5.59;100.00;101416.09;5038488;28;20025;-75
2021/11/25 02:56:16;;;;;;;81.00;35.83;;;;;;;5.57;100.00;101409.88;5033734;28;20235;-76
2021/11/25 02:58:44;;;;;;;91.22;37.55;;;;;;;5.54;100.00;101409.75;5035990;28;20041;-76
2021/11/25 03:01:14;;;;;;;92.07;37.53;;;;;;;5.48;100.00;101412.06;5033461;28;20030;-75
2021/11/25 03:03:41;;;;;;;92.97;37.97;;;;;;;5.45;100.00;101409.31;5031931;28;20033;-75
2021/11/25 03:06:07;;;;;;;90.63;37.17;;;;;;;5.49;100.00;101406.03;5030786;28;20025;-76
2021/11/25 03:08:33;;;;;;;84.05;36.58;;;;;;;5.46;100.00;101395.44;5033755;28;20088;-76
2021/11/25 03:11:10;;;;;;;89.75;37.78;;;;;;;5.45;100.00;101391.94;5034243;28;20033;-76
2021/11/25 03:13:39;;;;;;;90.47;37.20;;;;;;;5.43;100.00;101390.09;5034173;28;20571;-76
2021/11/25 03:16:06;;;;;;;91.60;38.28;;;;;;;5.40;100.00;101388.25;5031856;28;20045;-76
2021/11/25 03:18:31;;;;;;;95.68;38.95;;;;;;;5.38;100.00;101387.25;5027824;28;20055;-76
2021/11/25 03:20:57;;;;;;;85.97;36.63;;;;;;;5.36;100.00;101384.59;5034360;28;20081;-75
2021/11/25 03:23:26;;;;;;;95.07;39.38;;;;;;;5.36;100.00;101381.97;5034108;28;20489;-76
2021/11/25 03:25:57;;;;;;;90.78;39.10;;;;;;;5.36;100.00;101387.19;5034453;28;20334;-75
2021/11/25 03:28:23;;;;;;;97.65;39.90;;;;;;;5.36;100.00;101392.41;5033835;28;20052;-76
2021/11/25 03:30:54;;;;;;;100.85;39.65;;;;;;;5.33;100.00;101386.13;5033715;28;20041;-75
2021/11/25 03:33:23;;;;;;;97.03;39.72;;;;;;;5.35;100.00;101382.78;5033602;28;20059;-76
2021/11/25 03:35:49;;;;;;;101.43;39.58;;;;;;;5.36;100.00;101379.34;5032338;28;20029;-74
2021/11/25 03:38:15;;;;;;;96.18;37.95;;;;;;;5.36;100.00;101379.34;5039996;28;20077;-75
2021/11/25 03:40:40;;;;;;;105.03;41.88;;;;;;;5.34;100.00;101373.16;5038210;28;20032;-76
2021/11/25 03:43:06;;;;;;;92.72;38.40;;;;;;;5.34;100.00;101370.56;5033780;28;20026;-76
2021/11/25 03:45:32;;;;;;;95.93;38.67;;;;;;;5.36;100.00;101376.75;5041242;28;20033;-76
2021/11/25 03:47:57;;;;;;;95.18;39.72;;;;;;;5.35;100.00;101372.34;5036212;28;20056;-76
2021/11/25 03:50:23;;;;;;;102.05;40.85;;;;;;;5.35;100.00;101367.13;5034618;28;20037;-75
2021/11/25 03:52:48;;;;;;;93.70;38.95;;;;;;;5.35;100.00;101367.13;5033513;28;20025;-74
2021/11/25 03:55:18;;;;;;;94.22;36.40;;;;;;;5.38;100.00;101362.03;5016887;28;20067;-75
2021/11/25 03:57:45;;;;;;;98.32;38.35;;;;;;;5.38;100.00;101372.47;5018910;28;20021;-75
2021/11/25 04:00:13;;;;;;;95.93;39.75;;;;;;;5.39;100.00;101369.06;5029948;28;20075;-76
2021/11/25 04:02:41;;;;;;;101.35;38.95;;;;;;;5.40;100.00;101370.84;5034342;28;20025;-74
2021/11/25 04:05:08;;;;;;;95.28;38.15;;;;;;;5.39;100.00;101360.34;5033018;28;20029;-75
2021/11/25 04:07:33;;;;;;;102.05;38.17;;;;;;;5.40;100.00;101357.81;5031506;28;20025;-75
2021/11/25 04:09:59;;;;;;;98.70;36.75;;;;;;;5.37;100.00;101347.22;5047029;28;20116;-75
2021/11/25 04:12:24;;;;;;;106.10;40.20;;;;;;;5.38;100.00;101335.94;5036178;28;20021;-75
2021/11/25 04:14:50;;;;;;;98.10;38.65;;;;;;;5.39;100.00;101342.97;5043280;28;20029;-76
2021/11/25 04:17:18;;;;;;;97.45;39.35;;;;;;;5.40;100.00;101347.38;5035720;28;20028;-75
2021/11/25 04:19:44;;;;;;;101.55;38.10;;;;;;;5.39;100.00;101337.75;5038914;28;20040;-75
2021/11/25 04:22:09;;;;;;;100.88;40.15;;;;;;;5.37;100.00;101338.50;5035077;28;20045;-75
2021/11/25 04:24:36;;;;;;;103.57;39.22;;;;;;;5.38;100.00;101349.00;5029258;28;20021;-76
2021/11/25 04:27:02;;;;;;;99.63;39.10;;;;;;;5.38;100.00;101348.13;5034901;28;20378;-75
2021/11/25 04:29:27;;;;;;;100.65;39.58;;;;;;;5.37;100.00;101344.63;5040015;28;20078;-75
2021/11/25 04:37:21;;;;;;;103.75;41.03;;;;;;;5.36;100.00;101342.81;5034152;28;20354;-75
2021/11/25 04:39:46;;;;;;;103.32;39.63;;;;;;;5.33;100.00;101331.34;5037181;28;20033;-75
2021/11/25 04:42:12;;;;;;;100.35;39.75;;;;;;;5.31;100.00;101344.31;5048088;28;20033;-75
2021/11/25 04:44:37;;;;;;;100.55;38.85;;;;;;;5.28;100.00;101349.41;5037148;28;20548;-75
2021/11/25 04:47:03;;;;;;;122.03;41.05;;;;;;;5.28;100.00;101340.69;5036257;28;20117;-75
2021/11/25 04:49:30;;;;;;;107.68;41.90;;;;;;;5.27;100.00;101337.19;5037880;28;20448;-75
2021/11/25 04:51:56;;;;;;;101.22;39.08;;;;;;;5.30;100.00;101331.22;5034167;28;20021;-76
2021/11/25 04:54:22;;;;;;;109.68;39.47;;;;;;;5.36;100.00;101335.00;5038514;28;20040;-74
2021/11/25 04:56:48;;;;;;;106.55;40.80;;;;;;;5.35;100.00;101334.94;5051087;28;20082;-74
2021/11/25 04:59:13;;;;;;;110.22;41.22;;;;;;;5.33;100.00;101332.25;5034696;28;20116;-75
2021/11/25 05:01:39;;;;;;;100.18;37.05;;;;;;;5.37;100.00;101328.03;5036315;28;20109;-76
2021/11/25 05:04:04;;;;;;;104.07;38.28;;;;;;;5.39;100.00;101331.63;5040078;28;20039;-75
2021/11/25 05:06:35;;;;;;;103.07;40.20;;;;;;;5.37;100.00;101323.75;5035423;28;20184;-75
2021/11/25 05:09:01;;;;;;;109.57;40.05;;;;;;;5.39;100.00;101315.97;5034836;28;20021;-74
2021/11/25 05:11:27;;;;;;;120.32;40.47;;;;;;;5.39;100.00;101310.75;5034533;28;20397;-74
2021/11/25 05:13:52;;;;;;;116.90;41.15;;;;;;;5.39;100.00;101311.63;5040617;28;20044;-74
2021/11/25 05:16:18;;;;;;;112.60;41.97;;;;;;;5.40;100.00;101313.44;5038629;28;20016;-75
2021/11/25 05:18:43;;;;;;;114.68;41.05;;;;;;;5.39;100.00;101306.41;5041093;28;20033;-75
2021/11/25 05:21:08;;;;;;;110.28;39.72;;;;;;;5.42;100.00;101308.28;5047170;28;20120;-75
2021/11/25 05:23:35;;;;;;;107.70;40.42;;;;;;;5.43;100.00;101317.03;5037035;28;20034;-75
2021/11/25 05:26:02;;;;;;;114.65;41.25;;;;;;;5.43;100.00;101314.41;5046272;28;20465;-74
2021/11/25 05:28:27;;;;;;;120.47;41.53;;;;;;;5.43;100.00;101325.72;5036185;28;20068;-74
2021/11/25 05:30:53;;;;;;;111.50;41.63;;;;;;;5.40;100.00;101323.88;5035158;28;20025;-75
2021/11/25 05:33:18;;;;;;;114.55;41.58;;;;;;;5.40;100.00;101310.81;5034314;28;20347;-74
2021/11/25 05:35:44;;;;;;;119.53;41.85;;;;;;;5.38;100.00;101319.41;5035634;28;20025;-75
2021/11/25 05:38:10;;;;;;;106.68;40.78;;;;;;;5.36;100.00;101316.72;5034043;28;20453;-75
2021/11/25 05:40:36;;;;;;;112.30;40.15;;;;;;;5.37;100.00;101318.53;5041082;28;20492;-74
2021/11/25 05:43:02;;;;;;;118.82;42.75;;;;;;;5.36;100.00;101315.84;5033673;28;20108;-74
2021/11/25 05:45:27;;;;;;;119.03;41.72;;;;;;;5.35;100.00;101314.94;5032213;28;20041;-77
2021/11/25 05:47:53;;;;;;;117.05;42.95;;;;;;;5.38;100.00;101314.19;5035415;28;20140;-75
2021/11/25 05:50:25;;;;;;;118.90;41.35;;;;;;;5.39;100.00;101316.84;5029240;28;20044;-75
2021/11/25 05:52:53;;;;;;;122.57;40.80;;;;;;;5.42;100.00;101321.31;5034295;28;20124;-76
2021/11/25 05:55:19;;;;;;;112.50;42.42;;;;;;;5.44;100.00;101317.09;5047314;28;20112;-77
2021/11/25 05:57:45;;;;;;;124.40;44.88;;;;;;;5.46;100.00;101322.38;5033822;28;20025;-77
2021/11/25 06:00:14;;;;;;;117.05;41.80;;;;;;;5.48;100.00;101320.72;5036317;28;20082;-77
2021/11/25 06:02:43;;;;;;;118.65;40.47;;;;;;;5.49;100.00;101312.06;5038247;28;20021;-76
2021/11/25 06:05:10;;;;;;;124.38;42.22;;;;;;;5.46;100.00;101317.16;5033858;28;20504;-75
2021/11/25 06:07:36;;;;;;;115.78;41.00;;;;;;;5.48;100.00;101310.25;5034675;28;20094;-76
2021/11/25 06:10:03;;;;;;;124.25;43.65;;;;;;;5.49;100.00;101310.31;5029494;28;20037;-77
2021/11/25 06:12:29;;;;;;;114.68;41.95;;;;;;;5.50;100.00;101306.91;5036909;28;20037;-76
2021/11/25 06:14:54;;;;;;;105.20;39.33;;;;;;;5.51;100.00;101295.66;5032921;28;20474;-80
2021/11/25 06:17:21;;;;;;;121.85;41.75;;;;;;;5.48;100.00;101297.22;5035768;28;20035;-79
2021/11/25 06:19:47;;;;;;;127.63;44.00;;;;;;;5.46;100.00;101294.53;5035141;28;20049;-78
2021/11/25 06:22:13;;;;;;;126.18;41.67;;;;;;;5.50;100.00;101296.47;5034252;28;20474;-79
2021/11/25 06:24:38;;;;;;;111.22;41.00;;;;;;;5.48;100.00;101298.13;5034070;28;20025;-79
2021/11/25 06:27:05;;;;;;;119.13;42.20;;;;;;;5.47;100.00;101293.72;5035414;28;20102;-80
2021/11/25 06:29:31;;;;;;;115.25;41.17;;;;;;;5.46;100.00;101296.28;5035427;28;20026;-78
2021/11/25 06:31:56;;;;;;;120.00;42.28;;;;;;;5.42;100.00;101290.00;5034435;28;20476;-79
2021/11/25 06:34:21;;;;;;;113.50;40.65;;;;;;;5.44;100.00;101287.47;5033581;28;20029;-77
2021/11/25 06:36:47;;;;;;;116.05;40.60;;;;;;;5.45;100.00;101289.25;5033098;28;20097;-76
2021/11/25 06:39:18;;;;;;;111.78;39.13;;;;;;;5.43;100.00;101285.69;5033952;28;20462;-78
2021/11/25 06:41:44;;;;;;;117.88;39.50;;;;;;;5.43;100.00;101283.97;5032929;28;20029;-77
2021/11/25 06:44:09;;;;;;;115.72;38.92;;;;;;;5.44;100.00;101287.47;5033795;28;22248;-75
2021/11/25 06:46:35;;;;;;;119.53;41.22;;;;;;;5.44;100.00;101287.47;5032855;28;20073;-76
2021/11/25 06:49:00;;;;;;;116.68;39.72;;;;;;;5.45;100.00;101279.69;5034275;28;20503;-76
2021/11/25 06:51:27;;;;;;;117.32;40.25;;;;;;;5.45;100.00;101284.91;5028959;28;20030;-76
2021/11/25 06:53:53;;;;;;;116.35;41.63;;;;;;;5.47;100.00;101288.50;5025447;28;20034;-76
2021/11/25 06:56:18;;;;;;;117.20;38.67;;;;;;;5.48;100.00;101279.84;5028708;28;20036;-76
2021/11/25 06:58:44;;;;;;;109.85;38.10;;;;;;;5.50;100.00;101282.53;5024417;28;20037;-77
2021/11/25 07:01:09;;;;;;;105.90;37.85;;;;;;;5.51;100.00;101281.72;5032880;28;20037;-76
2021/11/25 07:03:35;;;;;;;120.53;38.92;;;;;;;5.53;100.00;101283.53;5034545;28;20041;-75
2021/11/25 07:06:02;;;;;;;111.43;38.28;;;;;;;5.57;100.00;101281.97;5033892;28;20115;-74
2021/11/25 07:08:28;;;;;;;114.65;36.72;;;;;;;5.60;100.00;101281.22;5030835;28;20405;-74
2021/11/25 07:10:54;;;;;;;94.88;34.05;;;;;;;5.64;100.00;101285.75;5031627;28;20029;-75
2021/11/25 07:13:20;;;;;;;105.93;36.17;;;;;;;5.67;100.00;101275.41;5032325;28;20418;-73
2021/11/25 07:15:46;;;;;;;101.53;36.05;;;;;;;5.68;100.00;101283.34;5033270;28;20049;-76
2021/11/25 07:18:12;;;;;;;103.38;33.53;;;;;;;5.69;100.00;101282.50;5033552;28;20167;-75
2021/11/25 07:20:37;;;;;;;97.30;33.13;;;;;;;5.72;100.00;101284.34;5031766;28;20113;-73
2021/11/25 07:23:03;;;;;;;113.88;34.42;;;;;;;5.74;100.00;101286.22;5033949;28;20054;-73
2021/11/25 07:25:28;;;;;;;94.68;32.50;;;;;;;5.78;100.00;101288.94;5031523;28;20021;-74
2021/11/25 07:27:55;;;;;;;94.78;31.20;;;;;;;5.80;100.00;101285.56;5031536;28;20060;-74
2021/11/25 07:30:21;;;;;;;95.80;33.50;;;;;;;5.83;100.00;101287.44;5031866;28;20029;-74
2021/11/25 07:32:48;;;;;;;98.38;32.38;;;;;;;5.85;100.00;101296.25;5034036;28;20108;-73
2021/11/25 07:35:17;;;;;;;100.40;33.38;;;;;;;5.86;100.00;101295.38;5032246;28;20369;-73
2021/11/25 07:37:42;;;;;;;97.63;32.03;;;;;;;5.89;100.00;101292.94;5032259;28;20022;-76
2021/11/25 07:40:09;;;;;;;97.68;32.08;;;;;;;5.91;100.00;101301.69;5034114;28;20108;-72
2021/11/25 07:42:35;;;;;;;96.30;33.08;;;;;;;5.92;100.00;101298.28;5033089;28;20053;-73
2021/11/25 07:45:01;;;;;;;100.68;33.00;;;;;;;5.97;100.00;101301.97;5037117;28;20119;-72
2021/11/25 07:47:32;;;;;;;87.60;29.08;;;;;;;6.05;100.00;101311.06;5037443;28;20025;-72
2021/11/25 07:50:03;;;;;;;79.97;26.63;;;;;;;6.11;100.00;101306.94;5036242;28;20060;-74
2021/11/25 07:52:28;;;;;;;73.90;24.92;;;;;;;6.18;100.00;101302.00;5037348;28;20033;-74
2021/11/25 07:54:55;;;;;;;74.72;24.10;;;;;;;6.21;100.00;101290.78;5037334;28;20022;-75
2021/11/25 07:57:20;;;;;;;63.60;22.23;;;;;;;6.27;100.00;101293.69;5035646;28;20021;-74
2021/11/25 07:59:46;;;;;;;79.22;23.20;;;;;;;6.31;100.00;101295.59;5035214;28;20373;-75
2021/11/25 08:02:12;;;;;;;69.10;21.27;;;;;;;6.33;100.00;101293.91;5035232;28;20076;-76
2021/11/25 08:04:37;;;;;;;64.88;23.02;;;;;;;6.36;100.00;101290.53;5040541;28;20036;-75
2021/11/25 08:07:03;;;;;;;63.67;21.85;;;;;;;6.39;100.00;101291.56;5042737;28;20051;-76
2021/11/25 08:09:29;;;;;;;65.65;21.25;;;;;;;6.41;100.00;101299.47;5041215;28;20512;-75
2021/11/25 08:11:58;;;;;;;73.95;22.15;;;;;;;6.41;100.00;101295.13;5041483;28;20029;-75
2021/11/25 08:14:24;;;;;;;63.88;21.08;;;;;;;6.44;100.00;101299.56;5037043;28;20029;-75
2021/11/25 08:16:50;;;;;;;64.47;21.85;;;;;;;6.45;100.00;101300.50;5017306;28;20041;-75
2021/11/25 08:19:15;;;;;;;62.65;21.85;;;;;;;6.47;100.00;101304.03;5028486;28;20057;-75
2021/11/25 08:21:40;;;;;;;67.72;20.17;;;;;;;6.49;100.00;101303.28;5032580;28;20493;-75
2021/11/25 08:24:06;;;;;;;59.00;19.90;;;;;;;6.52;100.00;101310.34;5020672;28;20034;-73
2021/11/25 08:26:31;;;;;;;59.55;20.98;;;;;;;6.55;100.00;101313.09;5040197;28;20052;-75
2021/11/25 08:28:57;;;;;;;53.60;19.00;;;;;;;6.56;100.00;101307.91;5052325;28;20021;-75
2021/11/25 08:31:22;;;;;;;54.03;18.75;;;;;;;6.62;100.00;101314.22;5035542;28;20116;-76
2021/11/25 08:33:48;;;;;;;57.10;18.17;;;;;;;6.67;100.00;101312.69;5041573;28;20079;-77
2021/11/25 08:36:14;;;;;;;48.10;17.02;;;;;;;6.72;100.00;101306.81;5052064;28;20036;-77
2021/11/25 08:38:39;;;;;;;32.05;9.80;;;;;;;6.76;100.00;101310.44;5038737;28;20030;-78
2021/11/25 08:41:07;;;;;;;23.08;8.13;;;;;;;6.79;100.00;101312.31;5050406;28;20037;-75
2021/11/25 08:43:33;;;;;;;26.77;7.85;;;;;;;6.78;100.00;101310.50;5039889;28;20091;-75
2021/11/25 08:45:59;;;;;;;17.80;4.13;;;;;;;6.81;100.00;101311.53;5040102;28;20469;-75
2021/11/25 08:48:25;;;;;;;16.58;2.53;;;;;;;6.84;100.00;101314.25;5041207;28;20042;-75
2021/11/25 08:50:50;;;;;;;14.70;2.35;;;;;;;6.80;100.00;101299.28;5052586;28;20096;-75
2021/11/25 08:53:16;;;;;;;14.93;1.95;;;;;;;6.80;100.00;101301.00;5035471;28;20033;-74
2021/11/25 08:55:41;;;;;;;12.55;2.20;;;;;;;6.78;100.00;101305.28;5039345;28;20025;-76
2021/11/25 08:58:07;;;;;;;20.60;2.40;;;;;;;6.79;100.00;101305.34;5038684;28;20473;-75
2021/11/25 09:00:34;;;;;;;20.55;2.25;;;;;;;6.82;100.00;101304.56;5042179;28;20029;-75
2021/11/25 09:03:01;;;;;;;17.70;1.90;;;;;;;6.85;100.00;101304.69;5040235;28;20546;-74
2021/11/25 09:05:27;;;;;;;16.52;2.15;;;;;;;6.89;100.00;101303.97;5045777;28;20025;-76
2021/11/25 09:07:52;;;;;;;12.73;2.60;;;;;;;6.90;100.00;101305.75;5047835;28;20033;-75
2021/11/25 09:10:18;;;;;;;16.15;2.00;;;;;;;6.90;100.00;101311.91;5038809;28;20022;-76
2021/11/25 09:12:44;;;;;;;19.33;2.25;;;;;;;6.92;100.00;101315.44;5052072;28;20025;-76
2021/11/25 09:15:10;;;;;;;17.05;1.90;;;;;;;6.95;100.00;101314.69;5034932;28;20030;-76
2021/11/25 09:17:36;;;;;;;19.88;2.22;;;;;;;6.98;100.00;101312.19;5045365;28;20025;-75
2021/11/25 09:20:04;;;;;;;21.98;2.20;;;;;;;7.00;100.00;101313.13;5042071;28;20021;-77
2021/11/25 09:22:30;;;;;;;16.23;2.47;;;;;;;7.02;100.00;101310.59;5047674;28;20037;-76
2021/11/25 09:24:56;;;;;;;20.27;2.15;;;;;;;7.04;100.00;101324.59;5037856;28;20116;-76
2021/11/25 09:27:22;;;;;;;23.02;3.15;;;;;;;7.04;100.00;101325.50;5035505;28;20410;-76
2021/11/25 09:29:47;;;;;;;12.32;2.83;;;;;;;7.05;100.00;101321.16;5034306;28;20041;-77
2021/11/25 09:32:13;;;;;;;20.88;2.40;;;;;;;7.06;100.00;101318.59;5050614;28;20037;-77
2021/11/25 09:34:40;;;;;;;16.80;2.45;;;;;;;7.12;100.00;101333.63;5042108;28;20370;-78
2021/11/25 09:37:06;;;;;;;18.80;3.75;;;;;;;7.19;100.00;101329.53;5035439;28;20053;-79
2021/11/25 09:39:32;;;;;;;21.60;2.72;;;;;;;7.26;100.00;101332.44;5035069;28;20033;-78
2021/11/25 09:41:58;;;;;;;19.85;3.00;;;;;;;7.35;100.00;101331.91;5034383;28;20424;-78
2021/11/25 09:44:25;;;;;;;20.45;3.65;;;;;;;7.45;100.00;101321.75;5034219;28;20040;-78
2021/11/25 09:46:56;;;;;;;17.02;2.55;;;;;;;7.48;100.00;101320.16;5038724;28;20040;-79
2021/11/25 09:49:23;;;;;;;12.48;1.90;;;;;;;7.51;100.00;101319.38;5019496;28;20033;-79
2021/11/25 09:51:49;;;;;;;20.88;2.80;;;;;;;7.53;100.00;101321.22;5043515;28;20025;-79
2021/11/25 09:54:15;;;;;;;12.63;1.77;;;;;;;7.57;100.00;101320.50;5049631;28;20021;-78
2021/11/25 09:56:42;;;;;;;23.90;2.30;;;;;;;7.63;100.00;101314.59;5032781;28;20024;-78
2021/11/25 09:59:10;;;;;;;19.00;2.70;;;;;;;7.71;100.00;101314.88;5036448;28;20030;-79
2021/11/25 10:01:35;;;;;;;16.00;1.58;;;;;;;7.83;100.00;101322.28;5038764;28;20389;-79
2021/11/25 10:04:05;;;;;;;19.52;1.98;;;;;;;7.86;100.00;101319.75;5042393;28;20037;-78
2021/11/25 10:06:33;;;;;;;10.90;1.42;;;;;;;7.93;100.00;101316.50;5036162;28;20037;-78
2021/11/25 10:09:00;;;;;;;14.88;2.28;;;;;;;7.96;100.00;101315.72;5035928;28;20034;-78
2021/11/25 10:11:34;;;;;;;10.25;1.77;;;;;;;8.01;100.00;101327.28;5019745;28;20028;-79
2021/11/25 10:14:08;;;;;;;9.40;1.30;;;;;;;8.22;100.00;101325.38;5035433;28;20036;-78
2021/11/25 10:16:45;;;;;;;16.17;1.95;;;;;;;8.60;100.00;101328.41;5035088;28;20036;-78
2021/11/25 10:19:17;;;;;;;17.20;1.77;;;;;;;8.88;100.00;101324.03;5034423;28;20057;-77
2021/11/25 10:21:53;;;;;;;14.18;2.05;;;;;;;9.11;100.00;101311.66;5036246;28;20052;-79
2021/11/25 10:24:42;;;;;;;13.20;1.75;;;;;;;9.34;100.00;101314.03;5035681;28;20033;-79
2021/11/25 10:27:25;;;;;;;7.57;1.40;;;;;;;9.45;100.00;101317.88;5034588;28;20166;-79
2021/11/25 10:30:13;;;;;;;13.60;1.52;;;;;;;9.49;100.00;101318.84;5032693;28;20045;-80
2021/11/25 10:32:40;;;;;;;9.90;1.30;;;;;;;9.49;97.69;101312.72;5028653;28;20033;-80
2021/11/25 10:35:28;;;;;;;8.75;1.90;;;;;;;9.49;96.91;101307.47;5036030;28;20025;-80
2021/11/25 10:40:30;;;;;;;12.38;1.35;;;;;;;9.39;96.30;101312.44;5054638;28;20094;-79
2021/11/25 10:42:56;;;;;;;11.88;1.38;;;;;;;9.23;95.27;101310.22;5055003;28;20028;-80
2021/11/25 10:45:23;;;;;;;9.93;1.30;;;;;;;9.06;96.77;101326.38;5042664;28;20025;-80
2021/11/25 10:48:04;;;;;;;9.25;1.30;;;;;;;8.85;97.44;101323.06;5034147;28;20034;-73
2021/11/25 10:50:32;;;;;;;11.85;1.33;;;;;;;8.71;98.17;101317.41;5033190;28;20033;-73
2021/11/25 10:53:09;;;;;;;13.73;1.20;;;;;;;8.53;98.22;101323.81;5032021;28;20033;-73
2021/11/25 10:55:37;;;;;;;14.15;1.67;;;;;;;8.39;96.54;101310.22;5019272;28;20039;-73
2021/11/25 10:58:06;;;;;;;10.07;1.52;;;;;;;8.34;96.67;101310.91;5035537;28;20493;-72
2021/11/25 11:00:39;;;;;;;10.00;1.50;;;;;;;8.27;97.76;101313.34;5039074;28;20353;-74
2021/11/25 11:03:05;;;;;;;10.93;1.33;;;;;;;8.21;96.70;101318.34;5036560;28;20090;-75
2021/11/25 11:05:56;;;;;;;11.95;1.70;;;;;;;8.20;96.15;101311.31;5031367;28;20086;-75
2021/11/25 11:08:31;;;;;;;9.75;1.45;;;;;;;8.21;97.12;101325.34;5034510;28;20033;-73
2021/11/25 11:11:07;;;;;;;11.07;1.40;;;;;;;8.26;96.89;101328.97;5033913;28;20033;-74
2021/11/25 11:13:43;;;;;;;6.18;1.52;;;;;;;8.28;94.78;101314.22;5033384;28;20017;-73
2021/11/25 11:16:41;;;;;;;8.68;1.48;;;;;;;8.32;93.30;101309.97;5035232;28;20029;-72
2021/11/25 11:19:11;;;;;;;12.75;1.65;;;;;;;8.42;94.07;101312.94;5034313;28;20037;-74